Time;durP1;ratioP1;P1;durP2;ratioP2;P2;SDS_P1;SDS_P2;PMS_P1;PMS_P2;Temp;Humidity;BMP_temperature;BMP_pressure;BME280_temperature;BME280_humidity;BME280_pressure;Samples;Min_cycle;Max_cycle;Signal;HPM_P1;HPM_P2
2023/11/17 00:01:03;;;;;;;6.30;3.70;;;;;;;2.42;87.66;99691.13;105926;1257;72546;-77
2023/11/17 00:03:30;;;;;;;3.70;3.30;;;;;;;2.46;87.84;99692.41;105799;1258;60521;-76
2023/11/17 00:05:56;;;;;;;4.10;3.60;;;;;;;2.44;87.55;99696.42;105891;1258;60423;-75
2023/11/17 00:08:23;;;;;;;4.50;3.70;;;;;;;2.37;87.12;99701.13;105920;1256;60433;-76
2023/11/17 00:10:50;;;;;;;4.10;3.50;;;;;;;2.32;87.04;99702.07;105871;1255;68794;-74
2023/11/17 00:13:16;;;;;;;4.10;3.20;;;;;;;2.38;87.00;99703.66;105879;1257;60547;-75
2023/11/17 00:15:43;;;;;;;5.30;2.90;;;;;;;2.47;86.82;99702.65;105734;1257;60426;-74
2023/11/17 00:18:09;;;;;;;3.70;3.30;;;;;;;2.44;86.65;99706.02;105904;1255;60541;-78
2023/11/17 00:20:36;;;;;;;5.60;3.80;;;;;;;2.38;86.71;99700.02;105876;1255;61112;-74
2023/11/17 00:23:03;;;;;;;4.90;3.90;;;;;;;2.35;86.96;99698.15;105819;1253;70350;-75
2023/11/17 00:25:29;;;;;;;4.50;3.20;;;;;;;2.31;86.67;99695.45;105762;1258;72447;-74
2023/11/17 00:27:57;;;;;;;5.60;3.20;;;;;;;2.36;86.10;99689.88;105986;1257;61766;-73
2023/11/17 00:30:25;;;;;;;4.00;2.60;;;;;;;2.42;85.80;99695.20;106027;1254;60379;-75
2023/11/17 00:32:53;;;;;;;4.40;3.60;;;;;;;2.35;85.80;99693.78;105727;1253;73998;-73
2023/11/17 00:35:20;;;;;;;3.60;2.90;;;;;;;2.26;86.12;99699.02;105879;1255;69979;-75
2023/11/17 00:37:47;;;;;;;3.90;3.20;;;;;;;2.22;86.65;99699.66;105826;1260;73102;-75
2023/11/17 00:40:14;;;;;;;4.80;3.50;;;;;;;2.20;86.40;99703.30;105732;1259;60970;-76
2023/11/17 00:42:40;;;;;;;3.50;3.00;;;;;;;2.25;85.95;99708.37;105710;1259;60457;-76
2023/11/17 00:45:08;;;;;;;4.80;3.30;;;;;;;2.30;85.99;99715.16;105817;1253;73958;-76
2023/11/17 00:47:35;;;;;;;6.30;3.20;;;;;;;2.27;86.06;99718.69;105816;1258;68723;-75
2023/11/17 00:50:10;;;;;;;4.10;3.40;;;;;;;2.25;86.54;99723.40;105932;1256;72428;-75
2023/11/17 00:52:39;;;;;;;5.30;3.90;;;;;;;2.23;86.39;99724.38;105870;1259;60446;-74
2023/11/17 00:55:07;;;;;;;4.90;3.20;;;;;;;2.21;85.91;99728.88;105846;1254;60416;-74
2023/11/17 00:57:34;;;;;;;5.30;3.10;;;;;;;2.29;85.84;99727.23;106071;1254;72369;-78
2023/11/17 01:00:01;;;;;;;4.40;3.10;;;;;;;2.30;85.72;99726.48;106749;1259;70336;-76
2023/11/17 01:02:28;;;;;;;3.60;3.00;;;;;;;2.25;85.85;99727.05;107441;1257;72443;-78
2023/11/17 01:04:55;;;;;;;3.30;2.70;;;;;;;2.21;85.70;99734.14;106194;1257;60422;-78
2023/11/17 01:07:22;;;;;;;3.10;2.80;;;;;;;2.16;85.67;99734.48;106232;1254;60476;-79
2023/11/17 01:09:49;;;;;;;6.40;2.90;;;;;;;2.12;85.36;99741.43;106729;1257;73689;-79
2023/11/17 01:12:16;;;;;;;3.30;2.70;;;;;;;2.20;85.40;99741.73;106600;1258;68987;-79
2023/11/17 01:14:43;;;;;;;3.30;3.00;;;;;;;2.28;85.33;99742.17;105989;1257;72503;-78
2023/11/17 01:17:11;;;;;;;4.50;3.00;;;;;;;2.25;84.96;99740.49;105726;1258;60489;-80
2023/11/17 01:19:40;;;;;;;4.50;3.60;;;;;;;2.19;85.47;99739.17;105974;1257;60405;-81
2023/11/17 01:22:07;;;;;;;3.90;3.00;;;;;;;2.16;85.25;99743.07;105931;1253;72137;-78
2023/11/17 01:24:33;;;;;;;3.20;2.70;;;;;;;2.12;85.33;99741.44;105950;1257;70206;-78
2023/11/17 01:27:04;;;;;;;3.70;2.80;;;;;;;2.21;85.20;99739.40;105915;1254;72101;-80
2023/11/17 01:29:32;;;;;;;3.50;2.90;;;;;;;2.29;85.29;99732.88;106274;1255;61191;-78
2023/11/17 01:31:58;;;;;;;4.50;3.10;;;;;;;2.26;84.83;99728.38;106051;1260;60471;-79
2023/11/17 01:34:28;;;;;;;4.60;3.40;;;;;;;2.20;85.24;99729.66;105912;1256;73848;-79
2023/11/17 01:36:55;;;;;;;5.00;3.00;;;;;;;2.19;85.24;99725.20;105940;1257;70685;-78
2023/11/17 01:39:22;;;;;;;4.50;3.20;;;;;;;2.15;84.57;99723.25;105854;1252;72440;-78
2023/11/17 01:41:48;;;;;;;4.50;2.90;;;;;;;2.17;84.29;99715.89;105814;1254;60982;-78
2023/11/17 01:44:15;;;;;;;3.00;2.40;;;;;;;2.19;84.51;99717.91;105852;1257;60332;-78
2023/11/17 01:46:44;;;;;;;3.40;2.90;;;;;;;2.10;84.34;99718.52;105722;1260;73620;-77
2023/11/17 01:49:12;;;;;;;4.10;3.50;;;;;;;1.99;84.38;99718.50;106086;1254;70156;-78
2023/11/17 01:51:39;;;;;;;3.50;3.10;;;;;;;1.93;85.04;99713.17;105813;1254;72665;-77
2023/11/17 01:54:05;;;;;;;4.80;2.90;;;;;;;1.92;85.19;99712.18;105774;1259;60728;-77
2023/11/17 01:56:33;;;;;;;4.10;3.20;;;;;;;2.03;85.25;99710.88;105973;1256;60535;-77
2023/11/17 01:58:59;;;;;;;4.90;2.90;;;;;;;2.11;84.62;99710.77;106003;1257;73783;-76
2023/11/17 02:01:27;;;;;;;3.20;2.80;;;;;;;2.04;84.64;99710.42;106032;1254;70032;-76
2023/11/17 02:03:55;;;;;;;4.90;3.20;;;;;;;1.94;84.71;99711.14;105833;1258;72810;-73
2023/11/17 02:06:48;;;;;;;4.20;3.30;;;;;;;1.90;85.16;99708.48;105901;1254;60465;-73
2023/11/17 02:09:37;;;;;;;4.60;3.00;;;;;;;1.91;85.32;99705.63;105911;1259;60561;-76
2023/11/17 02:12:16;;;;;;;5.70;3.40;;;;;;;2.02;85.11;99701.70;106010;1256;73911;-75
2023/11/17 02:14:46;;;;;;;5.00;3.50;;;;;;;2.05;84.70;99699.85;105913;1258;70506;-77
2023/11/17 02:17:15;;;;;;;7.30;3.30;;;;;;;1.96;84.68;99698.94;105976;1256;72951;-77
2023/11/17 02:19:45;;;;;;;3.70;3.10;;;;;;;1.89;84.95;99703.69;105655;1254;60400;-76
2023/11/17 02:22:17;;;;;;;4.80;3.50;;;;;;;1.84;85.11;99705.46;105671;1253;60570;-79
2023/11/17 02:25:01;;;;;;;7.00;3.80;;;;;;;1.81;85.36;99710.75;105817;1254;231053;-75
2023/11/17 02:29:47;;;;;;;6.20;4.10;;;;;;;1.99;85.28;99698.37;102783;1292;600658;-78
2023/11/17 02:32:16;;;;;;;8.40;6.10;;;;;;;1.99;85.27;99702.45;105243;1269;59344;-77
2023/11/17 02:34:44;;;;;;;5.40;4.60;;;;;;;1.97;85.14;99697.86;105833;1260;59427;-76
2023/11/17 02:37:12;;;;;;;5.20;4.40;;;;;;;1.94;85.26;99702.08;105300;1259;70829;-75
2023/11/17 02:39:40;;;;;;;6.00;4.90;;;;;;;1.91;85.23;99702.84;105218;1259;69249;-76
2023/11/17 02:42:10;;;;;;;4.70;3.90;;;;;;;1.91;85.57;99698.10;105311;1259;72497;-73
2023/11/17 02:44:40;;;;;;;6.10;3.70;;;;;;;2.04;85.11;99694.14;105473;1256;61114;-77
2023/11/17 02:47:19;;;;;;;4.30;3.80;;;;;;;2.11;84.57;99694.66;105479;1256;59590;-74
2023/11/17 02:49:52;;;;;;;4.90;4.00;;;;;;;2.05;84.60;99697.61;105776;1256;70845;-77
2023/11/17 02:52:23;;;;;;;7.00;4.20;;;;;;;2.01;85.02;99693.55;105752;1262;70242;-75
2023/11/17 02:54:52;;;;;;;6.20;4.30;;;;;;;1.98;84.99;99692.20;105462;1259;72656;-78
2023/11/17 02:57:22;;;;;;;5.60;5.10;;;;;;;1.96;84.92;99688.83;105446;1256;59630;-76
2023/11/17 02:59:50;;;;;;;6.30;5.60;;;;;;;1.91;84.60;99685.75;105597;1263;60104;-76
2023/11/17 03:02:19;;;;;;;8.90;7.40;;;;;;;1.93;84.18;99681.39;105663;1256;71661;-75
2023/11/17 03:04:54;;;;;;;7.20;6.10;;;;;;;1.96;84.19;99685.68;105580;1263;69030;-76
2023/11/17 03:07:22;;;;;;;6.40;5.40;;;;;;;1.91;84.10;99688.16;105803;1261;72681;-77
2023/11/17 03:09:51;;;;;;;8.50;6.40;;;;;;;1.86;84.57;99683.52;105578;1257;59659;-75
2023/11/17 03:12:20;;;;;;;7.40;6.20;;;;;;;1.78;84.47;99689.60;105580;1265;59622;-77
2023/11/17 03:14:47;;;;;;;6.60;4.50;;;;;;;1.71;84.78;99688.59;105560;1256;71866;-78
2023/11/17 03:17:15;;;;;;;4.60;3.70;;;;;;;1.77;84.72;99690.45;105618;1256;69969;-76
2023/11/17 03:19:43;;;;;;;5.20;4.40;;;;;;;1.84;84.65;99696.36;105451;1259;72767;-78
2023/11/17 03:22:13;;;;;;;6.60;4.40;;;;;;;1.79;84.77;99695.67;105503;1263;59613;-79
2023/11/17 03:24:41;;;;;;;5.30;4.30;;;;;;;1.73;85.09;99698.77;105501;1256;59532;-77
2023/11/17 03:27:11;;;;;;;7.70;5.10;;;;;;;1.67;85.22;99699.35;105473;1261;73044;-77
2023/11/17 03:29:39;;;;;;;6.30;4.80;;;;;;;1.67;85.51;99703.55;105735;1258;70343;-76
2023/11/17 03:32:07;;;;;;;5.50;4.20;;;;;;;1.75;85.12;99700.48;105491;1262;72716;-75
2023/11/17 03:34:35;;;;;;;6.20;4.90;;;;;;;1.78;84.84;99700.79;105446;1259;59734;-75
2023/11/17 03:37:03;;;;;;;5.80;4.30;;;;;;;1.74;85.21;99700.91;105428;1263;59960;-75
2023/11/17 03:39:32;;;;;;;7.40;4.90;;;;;;;1.73;85.66;99704.87;105441;1262;71849;-74
2023/11/17 03:42:00;;;;;;;6.30;4.50;;;;;;;1.69;85.39;99703.05;105564;1263;68961;-76
2023/11/17 03:44:28;;;;;;;7.30;4.60;;;;;;;1.65;85.71;99701.73;105393;1261;70902;-77
2023/11/17 03:46:56;;;;;;;4.60;3.90;;;;;;;1.76;85.61;99706.36;105439;1265;61469;-75
2023/11/17 03:49:24;;;;;;;4.80;3.90;;;;;;;1.90;85.40;99708.13;105363;1257;60016;-77
2023/11/17 03:51:53;;;;;;;5.70;4.90;;;;;;;1.94;85.37;99707.68;105522;1263;72518;-77
2023/11/17 03:54:21;;;;;;;6.30;4.90;;;;;;;1.89;84.98;99700.52;105581;1258;72397;-76
2023/11/17 03:56:49;;;;;;;6.50;5.40;;;;;;;1.83;85.06;99704.17;105703;1260;71427;-77
2023/11/17 03:59:18;;;;;;;9.90;5.40;;;;;;;1.77;85.22;99704.70;105700;1260;60697;-77
2023/11/17 04:01:46;;;;;;;6.00;5.00;;;;;;;1.77;85.60;99698.43;105663;1254;59628;-77
2023/11/17 04:04:20;;;;;;;5.70;4.30;;;;;;;1.87;85.14;99699.09;106753;1256;71818;-77
2023/11/17 04:06:50;;;;;;;7.40;5.30;;;;;;;1.94;84.47;99697.56;108542;1254;71094;-78
2023/11/17 04:09:21;;;;;;;5.80;4.30;;;;;;;1.87;84.54;99702.61;106018;1254;71445;-79
2023/11/17 04:11:51;;;;;;;6.40;5.10;;;;;;;1.80;84.74;99709.21;106528;1256;59635;-76
2023/11/17 04:14:20;;;;;;;7.40;5.20;;;;;;;1.74;84.96;99714.23;105802;1254;59677;-77
2023/11/17 04:16:49;;;;;;;8.90;6.00;;;;;;;1.70;85.21;99714.64;105737;1260;71821;-78
2023/11/17 04:19:20;;;;;;;8.40;5.40;;;;;;;1.69;85.19;99714.42;105846;1262;69374;-76
2023/11/17 04:21:49;;;;;;;7.40;4.40;;;;;;;1.76;84.93;99718.23;105676;1257;71262;-77
2023/11/17 04:24:17;;;;;;;6.20;5.00;;;;;;;1.80;84.48;99708.88;105725;1256;59731;-77
2023/11/17 04:26:46;;;;;;;7.40;4.90;;;;;;;1.78;84.83;99706.23;105622;1260;60050;-76
2023/11/17 04:29:14;;;;;;;6.30;5.20;;;;;;;1.71;84.90;99702.55;105707;1260;71994;-75
2023/11/17 04:31:42;;;;;;;7.80;6.30;;;;;;;1.64;85.27;99706.18;106026;1256;69102;-79
2023/11/17 04:34:12;;;;;;;6.70;5.60;;;;;;;1.62;85.37;99706.17;105577;1260;71409;-76
2023/11/17 04:36:40;;;;;;;7.00;5.50;;;;;;;1.61;85.41;99706.64;106006;1261;60974;-75
2023/11/17 04:39:16;;;;;;;6.50;4.30;;;;;;;1.66;84.96;99707.64;106743;1257;60088;-76
2023/11/17 04:41:48;;;;;;;5.90;5.00;;;;;;;1.71;84.95;99707.95;106179;1256;73073;-78
2023/11/17 04:44:17;;;;;;;6.20;5.40;;;;;;;1.73;85.58;99705.15;107114;1259;68742;-81
2023/11/17 04:46:44;;;;;;;6.70;5.90;;;;;;;1.77;85.90;99697.05;106650;1256;71427;-78
2023/11/17 04:49:15;;;;;;;7.90;5.40;;;;;;;1.80;86.07;99699.33;107347;1259;59707;-78
2023/11/17 04:51:48;;;;;;;8.30;5.90;;;;;;;1.80;85.71;99695.96;106170;1261;59552;-77
2023/11/17 04:54:16;;;;;;;;;;;;;;;1.76;85.63;99699.85;105885;1259;73532;-76
2023/11/17 04:56:43;;;;;;;7.10;5.30;;;;;;;1.86;85.74;99703.17;105647;1258;70337;-71
2023/11/17 04:59:11;;;;;;;6.50;5.60;;;;;;;1.97;85.41;99701.48;105784;1260;72799;-79
2023/11/17 05:01:38;;;;;;;9.50;6.30;;;;;;;2.00;85.57;99699.36;105799;1259;59582;-76
2023/11/17 05:04:07;;;;;;;6.60;5.50;;;;;;;2.00;85.36;99698.90;105788;1259;59643;-77
2023/11/17 05:06:36;;;;;;;9.70;7.30;;;;;;;1.97;85.34;99699.96;105804;1256;71872;-76
2023/11/17 05:09:11;;;;;;;9.60;7.00;;;;;;;1.91;85.26;99700.75;105916;1256;69956;-77
2023/11/17 05:11:39;;;;;;;7.60;6.00;;;;;;;1.90;85.55;99696.98;105768;1259;72684;-75
2023/11/17 05:14:06;;;;;;;7.90;5.90;;;;;;;2.00;85.31;99698.98;105610;1255;60823;-77
2023/11/17 05:16:35;;;;;;;7.10;5.80;;;;;;;2.09;84.85;99702.36;105553;1256;59640;-72
2023/11/17 05:19:03;;;;;;;7.10;5.90;;;;;;;2.03;84.59;99703.84;105669;1260;72381;-75
2023/11/17 05:21:32;;;;;;;7.90;6.00;;;;;;;1.93;84.52;99707.92;105633;1271;67833;-76
2023/11/17 05:24:02;;;;;;;8.10;6.60;;;;;;;1.81;84.74;99709.34;105506;1260;72345;-76
2023/11/17 05:26:30;;;;;;;7.90;6.40;;;;;;;1.76;85.18;99713.70;105648;1257;59745;-76
2023/11/17 05:28:57;;;;;;;5.90;5.30;;;;;;;1.87;85.42;99718.48;105663;1261;60579;-76
2023/11/17 05:31:27;;;;;;;6.70;5.50;;;;;;;2.00;85.33;99720.15;105558;1256;71837;-77
2023/11/17 05:33:57;;;;;;;8.70;6.50;;;;;;;2.02;85.28;99723.19;105873;1259;70135;-74
2023/11/17 05:36:26;;;;;;;13.30;9.40;;;;;;;1.94;84.93;99726.51;105771;1256;71600;-76
2023/11/17 05:38:55;;;;;;;10.90;7.80;;;;;;;1.90;85.31;99730.66;106801;1256;59663;-76
2023/11/17 05:41:25;;;;;;;11.70;9.40;;;;;;;1.89;85.47;99733.54;106259;1260;59543;-77
2023/11/17 05:43:53;;;;;;;9.60;7.40;;;;;;;1.90;85.65;99739.23;105936;1269;74144;-77
2023/11/17 05:46:21;;;;;;;7.80;6.00;;;;;;;2.04;85.63;99742.93;105764;1258;68892;-76
2023/11/17 05:48:50;;;;;;;8.40;5.80;;;;;;;2.14;84.92;99746.89;105580;1258;71228;-76
2023/11/17 05:51:18;;;;;;;8.40;6.20;;;;;;;2.13;85.00;99748.91;105651;1260;59740;-75
2023/11/17 05:53:46;;;;;;;9.00;6.30;;;;;;;2.10;85.33;99749.09;105762;1256;60340;-78
2023/11/17 05:56:16;;;;;;;9.70;6.70;;;;;;;2.10;85.55;99751.02;105668;1256;71770;-77
2023/11/17 05:58:45;;;;;;;7.40;5.70;;;;;;;2.09;85.21;99761.55;105722;1259;68824;-77
2023/11/17 06:01:13;;;;;;;7.40;5.20;;;;;;;2.16;85.02;99759.67;105540;1261;71279;-80
2023/11/17 06:03:41;;;;;;;7.30;6.20;;;;;;;2.25;84.68;99759.39;105594;1258;59735;-77
2023/11/17 06:06:09;;;;;;;8.40;6.30;;;;;;;2.19;84.17;99765.58;105541;1260;59659;-79
2023/11/17 06:08:37;;;;;;;8.80;6.40;;;;;;;2.08;84.51;99772.99;105771;1256;73104;-78
2023/11/17 06:11:05;;;;;;;8.90;7.50;;;;;;;2.04;84.86;99776.14;105658;1259;70556;-79
2023/11/17 06:13:40;;;;;;;10.20;6.90;;;;;;;1.99;85.02;99780.16;105779;1259;71453;-80
2023/11/17 06:16:08;;;;;;;8.70;6.50;;;;;;;2.05;84.91;99787.96;105729;1256;60338;-79
2023/11/17 06:18:36;;;;;;;9.50;6.20;;;;;;;2.10;84.39;99793.14;105797;1260;59715;-76
2023/11/17 06:21:04;;;;;;;7.80;6.20;;;;;;;2.03;84.81;99793.48;105884;1257;71775;-79
2023/11/17 06:23:32;;;;;;;11.10;7.60;;;;;;;1.92;85.12;99797.23;105898;1260;68897;-76
2023/11/17 06:26:00;;;;;;;8.40;7.50;;;;;;;1.83;85.53;99799.14;105783;1257;72653;-78
2023/11/17 06:28:28;;;;;;;7.80;7.00;;;;;;;1.76;85.89;99794.34;105746;1260;60974;-79
2023/11/17 06:30:55;;;;;;;7.50;6.00;;;;;;;1.85;85.99;99793.89;105745;1260;60222;-79
2023/11/17 06:33:23;;;;;;;8.30;7.00;;;;;;;1.97;86.21;99791.66;105688;1257;70874;-75
2023/11/17 06:35:50;;;;;;;8.70;7.60;;;;;;;2.03;86.71;99792.42;106020;1259;68848;-82
2023/11/17 06:38:18;;;;;;;13.40;9.00;;;;;;;2.07;86.19;99789.85;105810;1262;72657;-82
2023/11/17 06:40:45;;;;;;;9.10;7.00;;;;;;;2.02;85.47;99788.68;106423;1257;60471;-80
2023/11/17 06:43:14;;;;;;;7.60;6.40;;;;;;;2.01;85.43;99785.93;106158;1261;60719;-81
2023/11/17 06:45:42;;;;;;;11.00;7.10;;;;;;;2.14;85.48;99784.28;105799;1260;72869;-80
2023/11/17 06:48:09;;;;;;;8.60;6.80;;;;;;;2.20;85.66;99781.73;105825;1262;70573;-79
2023/11/17 06:50:37;;;;;;;8.60;6.10;;;;;;;2.21;85.70;99783.23;105731;1258;71242;-80
2023/11/17 06:53:04;;;;;;;8.60;6.10;;;;;;;2.19;85.51;99780.95;105723;1269;60530;-78
2023/11/17 06:55:32;;;;;;;8.60;6.00;;;;;;;2.15;85.16;99777.77;105793;1254;60404;-78
2023/11/17 06:57:59;;;;;;;7.30;5.60;;;;;;;2.18;85.01;99777.86;105829;1258;72581;-79
2023/11/17 07:00:28;;;;;;;9.00;6.80;;;;;;;2.28;85.00;99775.40;105729;1259;68804;-81
2023/11/17 07:02:55;;;;;;;8.50;6.20;;;;;;;2.30;85.04;99779.31;105776;1260;72655;-76
2023/11/17 07:05:24;;;;;;;9.40;7.80;;;;;;;2.24;84.77;99787.08;105766;1264;60483;-77
2023/11/17 07:07:53;;;;;;;8.30;6.20;;;;;;;2.16;84.94;99790.79;106141;1259;61183;-80
2023/11/17 07:10:24;;;;;;;10.40;6.90;;;;;;;2.12;85.43;99788.94;106374;1261;73930;-77
2023/11/17 07:12:52;;;;;;;10.80;7.10;;;;;;;2.18;86.08;99790.28;107178;1260;69004;-78
2023/11/17 07:15:22;;;;;;;17.70;6.40;;;;;;;2.35;85.65;99788.52;106069;1257;73006;-79
2023/11/17 07:17:51;;;;;;;7.40;5.50;;;;;;;2.48;85.11;99789.46;105986;1257;60616;-79
2023/11/17 07:20:22;;;;;;;10.60;6.50;;;;;;;2.49;84.90;99794.98;106047;1255;60589;-79
2023/11/17 07:22:49;;;;;;;9.10;6.70;;;;;;;2.49;85.00;99799.38;105918;1262;72555;-79
2023/11/17 07:25:17;;;;;;;6.90;5.90;;;;;;;2.45;84.55;99793.05;105928;1262;69619;-81
2023/11/17 07:27:44;;;;;;;7.70;5.90;;;;;;;2.41;84.75;99795.59;106091;1254;71175;-78
2023/11/17 07:30:13;;;;;;;9.10;6.10;;;;;;;2.41;84.82;99796.62;106005;1259;60409;-80
2023/11/17 07:32:41;;;;;;;8.00;6.20;;;;;;;2.51;84.59;99797.98;105839;1259;60816;-79
2023/11/17 07:35:09;;;;;;;8.30;7.00;;;;;;;2.63;84.26;99799.39;105962;1258;74386;-79
2023/11/17 07:37:36;;;;;;;9.00;6.60;;;;;;;2.65;84.37;99799.71;105835;1254;72664;-79
2023/11/17 07:40:05;;;;;;;8.10;7.00;;;;;;;2.64;84.32;99803.16;105835;1260;71508;-80
2023/11/17 07:42:33;;;;;;;10.10;6.70;;;;;;;2.62;84.35;99805.39;105718;1254;60463;-78
2023/11/17 07:45:03;;;;;;;8.80;6.90;;;;;;;2.61;84.37;99814.20;105827;1260;60420;-79
2023/11/17 07:47:33;;;;;;;6.70;5.90;;;;;;;2.59;84.18;99818.89;105752;1262;73143;-79
2023/11/17 07:50:07;;;;;;;8.70;7.10;;;;;;;2.68;84.37;99822.27;105803;1259;69696;-79
2023/11/17 07:52:34;;;;;;;9.40;6.20;;;;;;;2.78;83.86;99824.47;105961;1259;71352;-79
2023/11/17 07:55:02;;;;;;;8.50;7.10;;;;;;;2.78;84.01;99828.09;105768;1261;60629;-78
2023/11/17 07:57:30;;;;;;;11.60;8.60;;;;;;;2.74;83.71;99832.80;105755;1260;60438;-79
2023/11/17 07:59:57;;;;;;;10.80;8.80;;;;;;;2.70;83.96;99839.72;105600;1262;73955;-79
2023/11/17 08:02:25;;;;;;;9.00;6.90;;;;;;;2.66;83.68;99838.63;105923;1257;68126;-79
2023/11/17 08:04:54;;;;;;;10.00;7.00;;;;;;;2.68;83.45;99837.15;107364;1254;72697;-78
2023/11/17 08:07:22;;;;;;;8.90;6.60;;;;;;;2.65;83.41;99839.56;107175;1259;60448;-80
2023/11/17 08:09:50;;;;;;;10.40;7.90;;;;;;;2.59;83.60;99848.27;105956;1260;60368;-78
2023/11/17 08:12:18;;;;;;;8.70;6.90;;;;;;;2.54;83.97;99856.68;105964;1254;73154;-79
2023/11/17 08:14:46;;;;;;;11.70;7.90;;;;;;;2.48;83.83;99860.96;106151;1254;70333;-80
2023/11/17 08:17:13;;;;;;;10.80;7.70;;;;;;;2.46;84.00;99863.73;105829;1261;71295;-80
2023/11/17 08:19:41;;;;;;;10.80;7.70;;;;;;;2.54;83.90;99861.04;105829;1256;60464;-79
2023/11/17 08:22:08;;;;;;;8.20;7.20;;;;;;;2.59;84.56;99865.58;105976;1259;62617;-78
2023/11/17 08:24:36;;;;;;;9.10;7.50;;;;;;;2.59;84.41;99868.73;105867;1255;75055;-80
2023/11/17 08:27:04;;;;;;;11.50;8.30;;;;;;;2.59;84.52;99866.84;105834;1260;70854;-79
2023/11/17 08:29:31;;;;;;;9.70;7.40;;;;;;;2.63;85.09;99869.34;106129;1254;72491;-81
2023/11/17 08:31:59;;;;;;;9.80;8.20;;;;;;;2.67;84.64;99871.30;107246;1260;60341;-80
2023/11/17 08:34:27;;;;;;;9.50;7.60;;;;;;;2.76;84.02;99869.89;107636;1258;59250;-78
2023/11/17 08:36:54;;;;;;;10.30;7.90;;;;;;;2.85;83.66;99871.15;106685;1255;72560;-79
2023/11/17 08:39:25;;;;;;;10.00;8.60;;;;;;;2.81;83.53;99874.58;106083;1260;68837;-79
2023/11/17 08:41:55;;;;;;;9.70;8.10;;;;;;;2.78;83.85;99874.35;106858;1260;71709;-79
2023/11/17 08:44:23;;;;;;;15.40;9.10;;;;;;;2.73;83.87;99873.62;107617;1259;60569;-79
2023/11/17 08:46:51;;;;;;;12.10;8.70;;;;;;;2.71;84.02;99872.91;106596;1259;61098;-78
2023/11/17 08:49:20;;;;;;;8.50;7.60;;;;;;;2.76;83.63;99868.55;105867;1257;74682;-79
2023/11/17 08:51:50;;;;;;;10.90;8.10;;;;;;;2.82;83.67;99862.27;106336;1260;70930;-78
2023/11/17 08:54:17;;;;;;;16.40;8.90;;;;;;;2.84;84.03;99865.30;105822;1257;71462;-78
2023/11/17 08:56:47;;;;;;;14.00;9.30;;;;;;;2.84;83.91;99862.80;105842;1260;60514;-80
2023/11/17 08:59:15;;;;;;;13.40;11.50;;;;;;;2.83;83.66;99862.36;105887;1254;62199;-76
2023/11/17 09:01:43;;;;;;;55.00;44.20;;;;;;;2.79;83.95;99857.65;105654;1260;74008;-79
2023/11/17 09:04:11;;;;;;;20.90;17.10;;;;;;;2.80;84.26;99855.78;105841;1254;72527;-77
2023/11/17 09:06:40;;;;;;;17.60;12.80;;;;;;;2.95;84.14;99849.08;105912;1253;75276;-81
2023/11/17 09:09:13;;;;;;;11.00;9.80;;;;;;;3.09;83.47;99851.29;105809;1254;61495;-80
2023/11/17 09:11:46;;;;;;;13.10;9.70;;;;;;;3.08;83.21;99849.34;105789;1254;60493;-80
2023/11/17 09:14:13;;;;;;;12.90;9.70;;;;;;;3.05;83.44;99846.06;105702;1254;72858;-82
2023/11/17 09:16:41;;;;;;;12.50;9.40;;;;;;;3.01;83.51;99850.20;105915;1259;69783;-79
2023/11/17 09:19:16;;;;;;;12.20;9.70;;;;;;;2.97;83.47;99853.34;105824;1255;70182;-77
2023/11/17 09:21:44;;;;;;;12.40;9.30;;;;;;;2.96;83.24;99848.63;105832;1260;60381;-77
2023/11/17 09:24:11;;;;;;;11.40;8.20;;;;;;;3.02;83.06;99851.83;105754;1254;60466;-77
2023/11/17 09:26:39;;;;;;;10.60;9.00;;;;;;;3.00;83.36;99845.02;105772;1254;72702;-77
2023/11/17 09:29:07;;;;;;;12.90;10.40;;;;;;;2.93;83.46;99841.17;105804;1254;72045;-78
2023/11/17 09:31:34;;;;;;;13.20;10.70;;;;;;;2.91;83.83;99838.29;105800;1258;72696;-77
2023/11/17 09:34:02;;;;;;;13.50;10.50;;;;;;;2.92;83.82;99833.71;105705;1254;60472;-78
2023/11/17 09:36:30;;;;;;;16.40;11.30;;;;;;;3.01;83.85;99836.70;105843;1257;60413;-79
2023/11/17 09:38:58;;;;;;;13.50;11.00;;;;;;;3.20;84.10;99835.63;105978;1254;73919;-78
2023/11/17 09:41:25;;;;;;;14.10;11.90;;;;;;;3.30;84.18;99831.83;106091;1258;70575;-78
2023/11/17 09:43:57;;;;;;;13.70;11.00;;;;;;;3.40;84.46;99831.26;106041;1254;71373;-80
2023/11/17 09:46:29;;;;;;;12.70;10.60;;;;;;;3.47;84.36;99832.44;106248;1254;61254;-79
2023/11/17 09:48:59;;;;;;;14.50;11.90;;;;;;;3.50;83.53;99835.52;105785;1261;60347;-79
2023/11/17 09:51:28;;;;;;;14.30;9.90;;;;;;;3.46;82.90;99841.80;105932;1260;75065;-79
2023/11/17 09:53:56;;;;;;;11.90;9.40;;;;;;;3.51;82.41;99839.70;105819;1260;69282;-80
2023/11/17 09:56:23;;;;;;;13.80;10.10;;;;;;;3.56;81.87;99837.21;105929;1255;72679;-79
2023/11/17 09:58:53;;;;;;;12.50;10.40;;;;;;;3.48;81.37;99835.34;105688;1263;62060;-79
2023/11/17 10:01:22;;;;;;;14.40;11.40;;;;;;;3.39;81.85;99841.34;105828;1254;60903;-78
2023/11/17 10:03:49;;;;;;;15.10;11.40;;;;;;;3.33;82.26;99839.11;105699;1254;73310;-76
2023/11/17 10:06:18;;;;;;;14.20;11.40;;;;;;;3.34;82.72;99837.66;105789;1254;69894;-75
2023/11/17 10:08:45;;;;;;;15.70;11.70;;;;;;;3.33;82.69;99838.77;105974;1258;74966;-76
2023/11/17 10:11:13;;;;;;;13.00;10.20;;;;;;;3.30;82.21;99839.55;106567;1254;61193;-77
2023/11/17 10:13:40;;;;;;;16.00;10.60;;;;;;;3.33;81.88;99841.59;107911;1254;61017;-79
2023/11/17 10:16:08;;;;;;;13.80;10.50;;;;;;;3.41;81.99;99836.81;106214;1260;75727;-78
2023/11/17 10:18:37;;;;;;;11.90;10.50;;;;;;;3.41;82.07;99838.73;105756;1254;70396;-81
2023/11/17 10:21:05;;;;;;;16.90;12.60;;;;;;;3.42;82.46;99834.13;105678;1254;74670;-78
2023/11/17 10:23:33;;;;;;;19.80;13.80;;;;;;;3.44;82.86;99831.98;105631;1254;61073;-77
2023/11/17 10:26:01;;;;;;;17.00;13.00;;;;;;;3.48;82.90;99833.98;105532;1254;60570;-80
2023/11/17 10:28:30;;;;;;;20.50;13.60;;;;;;;3.50;82.89;99829.04;105751;1260;73809;-81
2023/11/17 10:31:05;;;;;;;16.70;12.30;;;;;;;3.58;82.62;99830.03;105678;1254;70627;-79
2023/11/17 10:33:33;;;;;;;16.90;13.00;;;;;;;3.65;82.51;99829.98;105732;1254;73572;-81
2023/11/17 10:36:10;;;;;;;12.50;10.00;;;;;;;3.63;82.29;99829.65;105947;1258;60595;-81
2023/11/17 10:38:39;;;;;;;13.00;10.70;;;;;;;3.56;81.66;99828.38;105702;1257;60532;-81
2023/11/17 10:41:16;;;;;;;12.50;10.70;;;;;;;3.45;81.40;99829.08;105764;1259;73471;-81
2023/11/17 10:43:49;;;;;;;14.60;11.80;;;;;;;3.31;81.61;99830.88;105809;1260;70050;-76
2023/11/17 10:46:26;;;;;;;14.00;11.50;;;;;;;3.31;81.42;99831.77;105769;1259;72953;-80
2023/11/17 10:49:01;;;;;;;14.20;11.30;;;;;;;3.32;81.72;99834.80;105764;1254;60425;-78
2023/11/17 10:51:30;;;;;;;14.40;11.30;;;;;;;3.23;81.85;99837.66;105648;1259;60058;-77
2023/11/17 10:54:11;;;;;;;14.70;11.90;;;;;;;3.13;82.13;99836.98;105822;1254;76091;-76
2023/11/17 10:56:41;;;;;;;18.40;13.20;;;;;;;3.03;82.15;99837.31;105870;1254;72850;-77
2023/11/17 10:59:09;;;;;;;17.10;12.20;;;;;;;2.96;82.69;99838.67;105719;1254;76870;-77
2023/11/17 11:01:37;;;;;;;14.50;11.10;;;;;;;3.07;82.64;99839.72;105624;1255;61473;-78
2023/11/17 11:04:15;;;;;;;17.90;12.90;;;;;;;3.17;82.44;99835.13;105958;1258;62482;-78
2023/11/17 11:06:43;;;;;;;17.40;13.10;;;;;;;3.17;82.74;99835.00;105800;1254;72958;-79
2023/11/17 11:09:16;;;;;;;24.70;14.90;;;;;;;3.18;83.40;99841.02;105760;1254;70775;-77
2023/11/17 11:11:50;;;;;;;17.70;13.10;;;;;;;3.21;83.26;99843.21;105828;1254;72668;-77
2023/11/17 11:14:20;;;;;;;17.30;12.50;;;;;;;3.20;83.20;99842.46;105678;1254;60547;-76
2023/11/17 11:16:48;;;;;;;17.10;12.10;;;;;;;3.24;82.43;99843.36;105676;1257;60826;-77
2023/11/17 11:19:17;;;;;;;16.10;12.60;;;;;;;3.31;82.70;99839.99;105565;1254;72859;-76
2023/11/17 11:22:00;;;;;;;22.70;12.70;;;;;;;3.30;82.71;99842.84;105847;1254;72615;-77
2023/11/17 11:24:36;;;;;;;18.90;13.20;;;;;;;3.27;83.25;99842.77;105720;1254;74117;-76
2023/11/17 11:27:06;;;;;;;22.40;14.20;;;;;;;3.29;83.51;99842.46;105816;1259;60459;-77
2023/11/17 11:29:38;;;;;;;19.50;12.90;;;;;;;3.30;83.49;99838.12;105626;1261;60505;-78
2023/11/17 11:32:08;;;;;;;17.70;12.40;;;;;;;3.30;83.53;99840.76;105857;1254;72619;-78
2023/11/17 11:34:38;;;;;;;17.20;12.40;;;;;;;3.41;83.45;99843.98;105737;1254;72772;-80
2023/11/17 11:37:10;;;;;;;18.40;13.40;;;;;;;3.49;82.81;99847.92;106001;1259;72660;-82
2023/11/17 11:39:38;;;;;;;17.00;12.70;;;;;;;3.45;82.63;99852.23;105914;1258;60466;-80